Time;durP1;ratioP1;P1;durP2;ratioP2;P2;SDS_P1;SDS_P2;PMS_P1;PMS_P2;Temp;Humidity;BMP_temperature;BMP_pressure;BME280_temperature;BME280_humidity;BME280_pressure;Samples;Min_cycle;Max_cycle;Signal;HPM_P1;HPM_P2
2022/09/16 00:05:19;;;;;;;26.33;17.23;;;;;;;18.19;100.00;99093.78;30872227;28;20561;-75
2022/09/16 00:20:21;;;;;;;23.35;16.00;;;;;;;18.06;100.00;99107.94;30885072;28;20078;-75
2022/09/16 00:35:23;;;;;;;27.98;16.88;;;;;;;17.98;100.00;99096.69;30871800;28;20051;-74
2022/09/16 00:50:37;;;;;;;32.63;19.30;;;;;;;17.91;100.00;99097.16;30861742;28;20087;-74
2022/09/16 01:05:40;;;;;;;27.70;17.33;;;;;;;17.92;100.00;99087.69;30884469;28;20051;-74
2022/09/16 01:21:04;;;;;;;39.58;21.75;;;;;;;17.87;100.00;99088.41;30874043;28;20054;-74
2022/09/16 01:36:28;;;;;;;86.72;20.13;;;;;;;17.85;100.00;99088.16;30880735;28;20050;-74
2022/09/16 01:51:40;;;;;;;40.17;19.17;;;;;;;17.79;100.00;99090.09;30876485;28;20070;-75
2022/09/16 02:06:45;;;;;;;25.95;15.38;;;;;;;17.71;100.00;99094.56;30863940;28;20055;-74
2022/09/16 02:21:50;;;;;;;52.28;14.88;;;;;;;17.61;100.00;99079.50;30860448;28;20058;-75
2022/09/16 02:36:59;;;;;;;28.13;15.60;;;;;;;17.48;100.00;99087.44;30870370;28;20058;-73
2022/09/16 02:52:22;;;;;;;42.05;15.18;;;;;;;17.36;100.00;99086.59;30874165;28;20069;-74
2022/09/16 03:07:25;;;;;;;21.17;12.52;;;;;;;17.29;100.00;99106.22;30893882;28;20059;-75
2022/09/16 03:22:54;;;;;;;28.48;13.60;;;;;;;17.23;100.00;99110.94;30891585;28;20063;-74
2022/09/16 03:37:58;;;;;;;20.75;12.75;;;;;;;17.08;100.00;99129.50;30882253;28;20113;-74
2022/09/16 03:53:00;;;;;;;;;;;;;;;17.15;100.00;99134.56;30901559;28;20574;-75
2022/09/16 04:08:01;;;;;;;16.05;12.10;;;;;;;17.36;100.00;99139.47;30872117;28;19929;-74
2022/09/16 04:23:03;;;;;;;18.45;13.65;;;;;;;17.68;100.00;99129.25;30895735;28;20384;-75
2022/09/16 04:38:05;;;;;;;22.05;12.30;;;;;;;18.19;100.00;99127.47;30879068;28;20511;-75
2022/09/16 04:53:07;;;;;;;20.40;12.27;;;;;;;18.49;100.00;99138.06;30878149;28;20055;-74
2022/09/16 05:08:09;;;;;;;20.88;13.27;;;;;;;18.27;100.00;99146.97;30889852;28;20054;-75
2022/09/16 05:23:11;;;;;;;17.40;12.88;;;;;;;18.77;100.00;99140.91;30893849;28;20055;-74
2022/09/16 05:38:14;;;;;;;22.92;13.52;;;;;;;18.88;100.00;99135.44;30874304;28;20062;-74
2022/09/16 05:53:16;;;;;;;13.45;10.43;;;;;;;20.02;100.00;99139.09;30882750;28;20070;-76
2022/09/16 06:08:18;;;;;;;9.68;8.30;;;;;;;21.39;100.00;99118.75;30873140;28;20105;-75
2022/09/16 06:23:21;;;;;;;10.05;8.80;;;;;;;23.09;100.00;99122.44;30897128;28;20423;-75
2022/09/16 06:38:23;;;;;;;13.13;8.63;;;;;;;24.63;100.00;99107.41;30854213;28;20051;-78
2022/09/16 06:53:25;;;;;;;8.23;7.10;;;;;;;25.06;100.00;99112.47;30898833;28;20086;-76
2022/09/16 07:08:32;;;;;;;7.50;6.67;;;;;;;25.99;100.00;99088.28;30881252;28;20094;-77
2022/09/16 07:23:36;;;;;;;7.90;6.85;;;;;;;25.05;100.00;99083.22;30877380;28;20059;-75
2022/09/16 07:38:38;;;;;;;7.82;7.03;;;;;;;24.83;100.00;99076.88;30880265;28;20132;-83
2022/09/16 07:53:41;;;;;;;8.95;5.43;;;;;;;25.19;100.00;99059.63;30886985;28;20497;-80
2022/09/16 08:08:44;;;;;;;10.27;5.57;;;;;;;25.27;100.00;99038.22;30891257;28;20117;-75
2022/09/16 08:23:47;;;;;;;7.10;5.47;;;;;;;25.69;100.00;99027.00;30895909;28;20137;-79
2022/09/16 08:38:52;;;;;;;6.95;5.95;;;;;;;26.48;100.00;99001.13;30865109;28;20053;-76
2022/09/16 08:54:10;;;;;;;10.50;6.88;;;;;;;26.92;94.47;99014.91;30875270;28;20063;-83
2022/09/16 09:09:15;;;;;;;8.15;5.70;;;;;;;27.09;100.00;99010.25;30875055;28;20055;-77
2022/09/16 09:24:29;;;;;;;8.68;6.15;;;;;;;26.01;100.00;98996.72;30874696;28;20069;-75
2022/09/16 09:39:34;;;;;;;9.52;8.10;;;;;;;25.28;100.00;98981.38;30878090;28;20049;-74
2022/09/16 09:54:43;;;;;;;5.82;4.72;;;;;;;25.28;100.00;98973.03;30861718;28;20407;-76
2022/09/16 10:10:01;;;;;;;6.70;5.10;;;;;;;25.35;100.00;98972.34;30857432;28;20063;-82
2022/09/16 10:25:19;;;;;;;7.82;4.93;;;;;;;27.03;100.00;98965.16;30862180;28;20125;-72
2022/09/16 10:40:23;;;;;;;4.20;2.95;;;;;;;27.42;100.00;98947.03;30857800;28;20098;-73
2022/09/16 10:55:34;;;;;;;5.45;2.42;;;;;;;26.61;100.00;98945.31;30857198;28;20507;-74
2022/09/16 11:10:47;;;;;;;7.57;2.65;;;;;;;25.79;94.23;98944.59;30858602;28;20047;-74
2022/09/16 11:26:11;;;;;;;4.47;2.53;;;;;;;25.75;100.00;98933.06;30856954;28;20106;-75
2022/09/16 11:41:23;;;;;;;6.53;3.60;;;;;;;26.63;91.96;98926.00;30877946;28;20066;-81
2022/09/16 11:57:04;;;;;;;3.28;2.30;;;;;;;27.78;100.00;98909.75;30876513;28;21044;-77
2022/09/16 12:12:20;;;;;;;6.60;3.30;;;;;;;27.20;86.80;98897.69;30905068;28;20061;-81
2022/09/16 12:27:48;;;;;;;5.50;2.95;;;;;;;26.25;93.00;98889.78;30883427;28;20054;-78
2022/09/16 12:43:20;;;;;;;6.07;2.95;;;;;;;25.92;100.00;98882.56;30882389;28;20051;-75
2022/09/16 12:58:50;;;;;;;4.82;3.28;;;;;;;25.94;93.66;98877.91;30882587;28;20053;-75
2022/09/16 13:13:55;;;;;;;11.23;5.20;;;;;;;25.67;100.00;98874.72;30879841;28;20089;-83
2022/09/16 13:28:57;;;;;;;9.95;6.80;;;;;;;25.01;100.00;98888.50;30896904;28;20057;-80
2022/09/16 13:44:00;;;;;;;7.47;4.28;;;;;;;24.14;100.00;98905.53;30867272;28;20486;-74
2022/09/16 13:59:20;;;;;;;;;;;;;;;23.64;97.37;98926.06;30858393;28;20051;-79
2022/09/16 14:14:26;;;;;;;10.68;5.32;;;;;;;23.83;100.00;98935.00;30850492;28;20368;-79
2022/09/16 14:29:59;;;;;;;12.77;7.82;;;;;;;23.41;100.00;98959.75;30873051;28;20045;-74
2022/09/16 14:45:03;;;;;;;16.95;11.55;;;;;;;22.94;100.00;99033.59;30876927;28;20503;-76
2022/09/16 15:00:09;;;;;;;18.08;11.57;;;;;;;22.81;100.00;99025.28;30856336;28;20105;-76
2022/09/16 15:15:28;;;;;;;14.32;9.80;;;;;;;22.59;100.00;99043.69;30883794;28;20121;-84
2022/09/16 15:30:31;;;;;;;13.15;7.93;;;;;;;22.30;100.00;99044.63;30890910;28;20053;-76
2022/09/16 15:45:33;;;;;;;10.35;7.53;;;;;;;21.89;100.00;99050.44;30901833;28;20043;-78
2022/09/16 16:01:02;;;;;;;9.43;7.82;;;;;;;21.43;100.00;99077.78;30907685;28;20075;-76
2022/09/16 16:16:07;;;;;;;11.55;8.68;;;;;;;21.19;100.00;99102.59;30898510;28;20062;-75
2022/09/16 16:31:11;;;;;;;10.93;8.52;;;;;;;20.89;100.00;99129.41;30879126;28;20050;-76
2022/09/16 16:46:13;;;;;;;15.95;8.88;;;;;;;20.56;100.00;99153.16;30886911;28;20077;-75
2022/09/16 17:01:17;;;;;;;12.45;8.57;;;;;;;20.19;100.00;99161.81;30856455;28;20102;-75
2022/09/16 17:16:20;;;;;;;;;;;;;;;19.87;100.00;99193.72;30881050;28;20050;-75
2022/09/16 17:31:28;;;;;;;15.65;9.05;;;;;;;19.58;100.00;99189.50;30878699;28;19926;-76
2022/09/16 17:46:30;;;;;;;16.60;9.75;;;;;;;19.30;100.00;99214.25;30883852;28;20093;-76
2022/09/16 18:01:33;;;;;;;14.93;10.05;;;;;;;19.13;100.00;99202.47;30850270;28;20499;-75
2022/09/16 18:16:35;;;;;;;12.98;8.38;;;;;;;18.87;100.00;99214.44;30874045;28;20046;-73
2022/09/16 18:31:43;;;;;;;11.57;6.55;;;;;;;18.67;100.00;99226.34;30848484;28;20082;-77
2022/09/16 18:46:46;;;;;;;12.95;8.38;;;;;;;18.48;100.00;99243.72;30869025;28;20057;-75
2022/09/16 19:01:49;;;;;;;14.45;9.10;;;;;;;18.26;100.00;99249.88;30860033;28;20168;-74
2022/09/16 19:16:52;;;;;;;19.03;10.53;;;;;;;17.98;100.00;99253.19;30838145;28;20044;-72
2022/09/16 19:31:54;;;;;;;45.13;27.65;;;;;;;17.74;100.00;99274.72;30877942;28;20051;-75
2022/09/16 19:46:57;;;;;;;21.30;13.13;;;;;;;17.54;100.00;99311.19;30852722;28;20059;-76
2022/09/16 20:01:58;;;;;;;16.75;10.45;;;;;;;17.42;100.00;99342.53;30867043;28;20514;-77
2022/09/16 20:17:01;;;;;;;17.13;11.48;;;;;;;17.28;100.00;99349.59;30885682;28;20087;-77
2022/09/16 20:32:03;;;;;;;19.10;12.13;;;;;;;17.14;100.00;99355.91;30868387;28;20169;-76
2022/09/16 20:47:05;;;;;;;17.55;8.93;;;;;;;17.00;100.00;99352.03;30883156;28;20141;-77
2022/09/16 21:02:07;;;;;;;11.73;7.68;;;;;;;16.90;100.00;99336.19;30876889;28;20150;-75
2022/09/16 21:17:10;;;;;;;9.27;6.30;;;;;;;16.78;100.00;99345.47;30841610;28;20051;-76
2022/09/16 21:32:12;;;;;;;11.95;6.93;;;;;;;16.69;100.00;99366.31;30849797;28;20059;-76
2022/09/16 21:47:14;;;;;;;9.23;6.60;;;;;;;16.68;100.00;99384.00;30850621;28;20061;-75
2022/09/16 22:02:15;;;;;;;10.30;6.53;;;;;;;16.74;100.00;99394.28;30846441;28;20082;-76
2022/09/16 22:17:17;;;;;;;9.82;6.60;;;;;;;16.68;100.00;99378.50;30855762;28;20047;-76
2022/09/16 22:32:19;;;;;;;8.88;6.15;;;;;;;16.53;100.00;99386.00;30888167;28;20090;-74
2022/09/16 22:47:21;;;;;;;10.13;7.07;;;;;;;16.42;100.00;99396.78;30867348;28;20058;-76
2022/09/16 23:02:23;;;;;;;9.48;6.93;;;;;;;16.29;100.00;99399.06;30873996;28;20086;-74
2022/09/16 23:17:25;;;;;;;9.23;6.50;;;;;;;16.11;100.00;99404.72;30860183;28;20474;-75
2022/09/16 23:32:27;;;;;;;10.85;7.50;;;;;;;15.97;100.00;99407.00;30878917;28;20388;-76
2022/09/16 23:47:29;;;;;;;9.98;6.50;;;;;;;15.86;100.00;99401.31;30883832;28;20054;-75
